Time;durP1;ratioP1;P1;durP2;ratioP2;P2;SDS_P1;SDS_P2;PMS_P1;PMS_P2;Temp;Humidity;BMP_temperature;BMP_pressure;BME280_temperature;BME280_humidity;BME280_pressure;Samples;Min_cycle;Max_cycle;Signal;HPM_P1;HPM_P2
2022/06/02 06:11:14;;;;;;;11.97;10.70;;;;;;;17.99;73.13;101039.31;5052255;27;2202828;-69
2022/06/02 06:13:54;;;;;;;11.43;10.13;;;;;;;18.35;71.36;101041.63;5111363;28;20052;-67
2022/06/02 06:16:39;;;;;;;11.33;9.87;;;;;;;18.57;71.72;101059.25;5110325;28;20109;-70
2022/06/02 06:19:24;;;;;;;11.93;10.73;;;;;;;18.37;71.25;101060.28;5107441;28;20397;-69
2022/06/02 06:22:20;;;;;;;10.63;9.63;;;;;;;17.98;71.19;101056.50;5109389;28;20500;-69
2022/06/02 06:25:04;;;;;;;11.50;10.07;;;;;;;17.63;73.34;101056.56;5107906;28;20031;-67
2022/06/02 06:27:29;;;;;;;11.67;10.43;;;;;;;17.67;73.62;101046.28;5109489;28;20032;-67
2022/06/02 06:30:17;;;;;;;11.40;10.00;;;;;;;18.09;72.30;101061.28;5109296;28;20378;-68
2022/06/02 06:32:48;;;;;;;10.18;9.27;;;;;;;18.29;71.69;101057.81;5109253;28;20397;-67
2022/06/02 06:35:14;;;;;;;10.93;9.93;;;;;;;18.18;71.35;101062.75;5109434;28;20043;-68
2022/06/02 06:37:42;;;;;;;10.10;9.17;;;;;;;17.86;72.00;101060.81;5109106;28;20047;-66
2022/06/02 06:40:16;;;;;;;12.18;11.00;;;;;;;17.60;73.82;101070.44;5109452;28;20150;-67
2022/06/02 06:43:06;;;;;;;10.37;9.17;;;;;;;17.39;74.79;101069.72;5109072;28;20035;-68
2022/06/02 06:45:34;;;;;;;16.23;10.43;;;;;;;17.14;74.96;101074.75;5109379;28;20402;-70
2022/06/02 06:48:13;;;;;;;14.85;10.45;;;;;;;16.99;75.53;101069.47;5109152;28;20028;-69
2022/06/02 06:51:03;;;;;;;11.60;10.23;;;;;;;16.91;76.50;101080.41;5108137;28;20040;-72
2022/06/02 06:53:31;;;;;;;11.50;10.30;;;;;;;16.92;75.97;101080.22;5108927;28;20044;-69
2022/06/02 06:56:09;;;;;;;10.20;8.80;;;;;;;17.09;75.56;101077.22;5109213;28;20031;-69
2022/06/02 06:59:06;;;;;;;10.43;9.43;;;;;;;17.36;74.14;101070.13;5109149;28;20055;-69
2022/06/02 07:01:50;;;;;;;11.05;8.85;;;;;;;17.64;74.06;101071.72;5091348;28;20040;-68
2022/06/02 07:04:28;;;;;;;11.87;9.20;;;;;;;17.74;72.08;101062.44;5110486;28;20034;-69
2022/06/02 07:07:06;;;;;;;11.35;8.57;;;;;;;17.90;71.86;101064.75;5108910;28;20038;-69
2022/06/02 07:09:47;;;;;;;13.23;7.90;;;;;;;18.01;71.06;101066.88;5108581;28;20060;-70
2022/06/02 07:15:23;;;;;;;9.17;8.17;;;;;;;18.29;70.43;101064.03;5108879;28;20142;-66
2022/06/02 07:18:05;;;;;;;10.83;9.63;;;;;;;18.30;69.33;101075.63;5108910;28;20051;-66
2022/06/02 07:20:39;;;;;;;10.68;7.47;;;;;;;18.35;69.56;101073.16;5104848;28;20028;-67
2022/06/02 07:23:38;;;;;;;8.80;7.97;;;;;;;18.57;68.79;101072.75;5093613;28;20063;-64
2022/06/02 07:26:31;;;;;;;9.07;8.17;;;;;;;18.64;67.73;101078.16;5091292;28;20089;-66
2022/06/02 07:29:22;;;;;;;9.82;7.97;;;;;;;18.36;67.01;101069.41;5094834;28;20036;-67
2022/06/02 07:32:02;;;;;;;11.10;9.20;;;;;;;18.15;67.04;101062.31;5094767;28;20043;-68
2022/06/02 07:34:46;;;;;;;8.70;7.90;;;;;;;18.10;66.91;101068.34;5094619;28;20044;-67
2022/06/02 07:37:47;;;;;;;8.52;7.72;;;;;;;18.26;66.74;101070.66;5094460;28;20040;-71
2022/06/02 07:40:31;;;;;;;16.33;8.23;;;;;;;18.60;67.15;101076.91;5076939;28;20070;-69
2022/06/02 07:43:21;;;;;;;10.25;8.23;;;;;;;18.80;63.73;101077.75;5093222;28;20059;-71
2022/06/02 07:46:16;;;;;;;7.97;7.18;;;;;;;19.02;64.64;101075.63;5093643;28;20411;-67
2022/06/02 07:49:10;;;;;;;11.05;7.70;;;;;;;19.45;62.41;101081.34;5080058;28;20422;-71
2022/06/02 07:51:41;;;;;;;8.95;6.50;;;;;;;19.56;60.99;101084.47;5094691;28;20081;-69
2022/06/02 07:54:25;;;;;;;9.82;7.05;;;;;;;19.56;59.53;101092.56;5095184;28;20047;-70
2022/06/02 07:57:09;;;;;;;7.57;6.80;;;;;;;19.36;57.97;101085.31;5093943;28;20035;-65
2022/06/02 07:59:51;;;;;;;9.25;7.47;;;;;;;19.30;58.50;101096.97;5094248;28;20040;-67
2022/06/02 08:02:41;;;;;;;5.63;5.03;;;;;;;19.08;57.31;101087.47;5096295;28;20286;-69
2022/06/02 08:05:27;;;;;;;9.93;5.30;;;;;;;18.88;56.76;101096.44;5098673;28;20032;-67
2022/06/02 08:08:08;;;;;;;10.25;5.97;;;;;;;18.86;57.63;101093.13;5099428;28;20036;-70
2022/06/02 08:10:40;;;;;;;7.80;5.72;;;;;;;18.75;58.61;101093.72;5096559;28;20529;-68
2022/06/02 08:13:32;;;;;;;8.52;6.80;;;;;;;18.71;58.79;101084.38;5094139;28;20109;-68
2022/06/02 08:16:02;;;;;;;6.07;5.47;;;;;;;18.76;57.63;101083.75;5093938;28;20044;-68
2022/06/02 08:18:58;;;;;;;5.97;5.05;;;;;;;18.91;58.92;101095.19;5093742;28;20483;-69
2022/06/02 08:21:33;;;;;;;6.22;5.07;;;;;;;18.86;57.80;101074.22;5094946;28;20035;-69
2022/06/02 08:24:16;;;;;;;8.18;6.90;;;;;;;18.99;57.96;101080.63;5093655;28;20066;-69
2022/06/02 08:27:06;;;;;;;7.63;5.75;;;;;;;19.33;57.13;101088.44;5093631;28;20036;-68
2022/06/02 08:30:05;;;;;;;7.30;5.55;;;;;;;19.60;56.47;101093.78;5093586;28;20371;-68
2022/06/02 08:32:49;;;;;;;6.80;6.13;;;;;;;19.67;55.02;101091.91;5092660;28;20046;-69
2022/06/02 08:35:18;;;;;;;6.38;5.75;;;;;;;19.79;54.78;101082.91;5093604;28;20058;-68
2022/06/02 08:38:16;;;;;;;5.30;4.50;;;;;;;19.90;52.59;101111.13;5092445;28;20040;-68
2022/06/02 08:41:28;;;;;;;6.22;4.60;;;;;;;19.88;52.67;101107.81;5092688;28;20051;-68
2022/06/02 08:44:17;;;;;;;5.60;4.53;;;;;;;20.05;52.68;101108.97;5092842;28;20036;-67
2022/06/02 08:47:19;;;;;;;5.80;4.43;;;;;;;20.24;50.06;101117.16;5093383;28;20044;-77
2022/06/02 08:49:53;;;;;;;5.38;4.57;;;;;;;20.10;50.38;101117.25;5092993;28;20055;-66
2022/06/02 08:52:56;;;;;;;10.45;3.90;;;;;;;20.27;50.02;101117.59;5093276;28;20468;-66
2022/06/02 08:56:18;;;;;;;4.03;3.70;;;;;;;20.40;49.97;101132.94;5092993;28;20050;-66
2022/06/02 08:59:01;;;;;;;4.72;4.25;;;;;;;20.49;49.98;101126.19;5010907;28;20053;-66
2022/06/02 09:01:45;;;;;;;4.68;3.20;;;;;;;20.56;49.09;101118.06;5010834;28;20046;-66
2022/06/02 09:04:36;;;;;;;4.78;3.13;;;;;;;20.46;48.97;101134.75;5079454;28;20097;-67
2022/06/02 09:07:34;;;;;;;5.93;3.25;;;;;;;20.11;49.04;101135.16;5093111;28;20036;-65
2022/06/02 09:10:31;;;;;;;6.55;3.33;;;;;;;19.98;49.32;101143.34;5085252;28;20056;-66
2022/06/02 09:13:00;;;;;;;;;;;;;;;19.90;49.63;101142.72;5093282;28;20040;-67
2022/06/02 09:15:39;;;;;;;4.35;3.65;;;;;;;19.82;49.50;101135.69;5093191;28;19923;-67
2022/06/02 09:18:12;;;;;;;4.45;4.00;;;;;;;19.85;49.12;101146.06;5092767;28;20089;-66
2022/06/02 09:20:46;;;;;;;8.68;4.00;;;;;;;19.73;50.05;101147.81;5093066;28;20032;-68
2022/06/02 09:23:17;;;;;;;4.30;3.70;;;;;;;19.65;50.19;101150.72;5092696;28;20039;-67
2022/06/02 09:26:13;;;;;;;4.18;3.78;;;;;;;19.70;51.35;101153.63;5093066;28;20032;-68
2022/06/02 09:29:20;;;;;;;4.75;4.13;;;;;;;19.80;50.92;101154.00;5091385;28;20060;-67
2022/06/02 09:32:22;;;;;;;6.13;4.37;;;;;;;19.93;49.69;101140.41;5082491;28;20091;-67
2022/06/02 09:34:53;;;;;;;5.68;3.00;;;;;;;20.07;48.30;101143.91;5093101;28;20032;-69
2022/06/02 09:37:53;;;;;;;3.85;3.15;;;;;;;20.25;49.14;101145.91;5092604;28;20024;-68
2022/06/02 09:40:28;;;;;;;4.15;3.30;;;;;;;20.33;46.82;101154.59;5092888;28;20028;-66
2022/06/02 09:43:24;;;;;;;4.25;3.60;;;;;;;20.36;46.60;101156.03;5073372;28;20575;-66
2022/06/02 09:46:14;;;;;;;5.28;4.35;;;;;;;20.47;45.95;101171.56;5091730;28;20074;-66
2022/06/02 09:48:55;;;;;;;4.18;2.90;;;;;;;20.55;45.36;101156.97;5092560;28;20055;-67
2022/06/02 09:51:44;;;;;;;5.10;2.47;;;;;;;20.78;45.51;101170.75;5092652;28;20089;-66
2022/06/02 09:54:13;;;;;;;3.95;2.85;;;;;;;20.88;43.56;101162.97;5074144;28;20063;-67
2022/06/02 09:56:47;;;;;;;2.55;2.35;;;;;;;20.80;43.60;101175.94;5091915;28;20123;-68
2022/06/02 09:59:36;;;;;;;6.97;2.83;;;;;;;20.77;43.48;101170.97;5091740;28;20043;-66
2022/06/02 10:02:17;;;;;;;4.15;2.58;;;;;;;20.70;43.99;101177.25;5091623;28;20584;-65
2022/06/02 10:05:02;;;;;;;4.20;2.00;;;;;;;20.78;44.12;101176.16;5091827;28;20157;-66
2022/06/02 10:07:52;;;;;;;3.67;2.38;;;;;;;20.70;44.56;101182.66;5092334;28;20126;-66
2022/06/02 10:10:39;;;;;;;3.20;2.47;;;;;;;20.68;45.97;101179.34;5091674;28;20140;-68
2022/06/02 10:13:42;;;;;;;2.97;2.60;;;;;;;20.69;44.23;101181.00;5090600;28;20102;-67
2022/06/02 10:16:29;;;;;;;4.30;2.38;;;;;;;20.50;43.83;101202.78;5091771;28;20035;-67
2022/06/02 10:19:33;;;;;;;3.10;2.30;;;;;;;20.32;44.91;101189.97;5091464;28;20062;-67
2022/06/02 10:22:05;;;;;;;3.45;2.30;;;;;;;20.17;42.28;101192.09;5092218;28;20529;-68
2022/06/02 10:24:49;;;;;;;6.55;2.72;;;;;;;20.16;42.64;101193.97;5091801;28;20486;-69
2022/06/02 10:27:33;;;;;;;6.63;2.40;;;;;;;20.09;43.48;101202.13;5091710;28;20036;-69
2022/06/02 10:30:07;;;;;;;5.35;2.65;;;;;;;19.89;43.65;101195.13;5091787;28;20406;-70
2022/06/02 10:33:10;;;;;;;3.97;2.35;;;;;;;19.99;44.07;101209.03;5092012;28;20398;-75
2022/06/02 10:35:54;;;;;;;6.68;3.30;;;;;;;20.00;44.22;101208.84;5094190;28;20044;-73
2022/06/02 10:38:33;;;;;;;15.38;3.20;;;;;;;20.11;43.59;101215.44;5099971;28;20122;-76
2022/06/02 10:41:04;;;;;;;8.15;3.58;;;;;;;20.28;40.65;101226.59;5091988;28;20036;-73
2022/06/02 10:44:04;;;;;;;5.88;2.17;;;;;;;20.34;41.71;101212.22;5092118;28;20040;-75
2022/06/02 10:47:14;;;;;;;3.95;2.72;;;;;;;20.55;40.98;101221.94;5090922;28;20495;-72
2022/06/02 10:50:01;;;;;;;3.13;1.92;;;;;;;20.50;40.88;101236.06;5061130;28;20131;-72
2022/06/02 10:52:46;;;;;;;3.28;2.65;;;;;;;20.47;41.74;101230.28;5092641;28;20071;-68
2022/06/02 10:55:49;;;;;;;6.18;2.25;;;;;;;20.32;41.85;101235.94;5091869;28;20028;-69
2022/06/02 10:58:42;;;;;;;4.43;2.03;;;;;;;20.21;44.17;101242.00;5096184;28;20502;-66
2022/06/02 11:01:13;;;;;;;4.40;2.33;;;;;;;20.22;45.42;101249.91;5096184;28;20036;-67
2022/06/02 11:03:57;;;;;;;7.45;3.17;;;;;;;20.30;44.77;101254.25;5095493;28;20147;-66
2022/06/02 11:06:41;;;;;;;4.22;2.92;;;;;;;20.33;46.03;101267.34;5095556;28;20119;-65
2022/06/02 11:09:17;;;;;;;3.88;2.80;;;;;;;20.28;45.28;101254.47;5095906;28;20086;-65
2022/06/02 11:12:02;;;;;;;6.13;2.97;;;;;;;20.35;45.54;101255.28;5096445;28;20048;-66
2022/06/02 11:14:51;;;;;;;4.15;2.90;;;;;;;20.50;44.57;101273.97;5096074;28;20055;-66
2022/06/02 11:17:44;;;;;;;4.20;3.35;;;;;;;20.37;43.39;101263.19;5096154;28;20036;-65
2022/06/02 11:20:13;;;;;;;6.07;2.70;;;;;;;20.34;43.98;101271.72;5096073;28;20093;-69
2022/06/02 11:23:03;;;;;;;4.90;2.65;;;;;;;20.32;43.83;101281.94;5096196;28;20032;-65
2022/06/02 11:25:45;;;;;;;2.58;2.00;;;;;;;20.23;43.92;101265.09;5095035;28;20036;-69
2022/06/02 11:28:19;;;;;;;4.70;2.78;;;;;;;20.29;44.62;101287.78;5094478;28;20039;-68
2022/06/02 11:30:44;;;;;;;6.38;2.30;;;;;;;20.30;42.68;101273.19;5094936;28;20134;-68
2022/06/02 11:33:20;;;;;;;8.13;2.25;;;;;;;20.31;42.95;101285.69;5094794;28;20506;-73
2022/06/02 11:36:03;;;;;;;3.75;2.55;;;;;;;20.04;42.47;101291.16;5094512;28;20039;-74
2022/06/02 11:39:16;;;;;;;5.75;2.63;;;;;;;19.93;43.09;101294.50;5096283;28;20038;-71
2022/06/02 11:42:01;;;;;;;3.75;2.33;;;;;;;20.15;42.35;101297.78;5093502;28;20042;-70
2022/06/02 11:44:46;;;;;;;7.60;3.08;;;;;;;20.25;42.45;101308.19;5094680;28;20079;-69
2022/06/02 11:47:36;;;;;;;4.90;2.40;;;;;;;20.03;42.13;101308.44;5093478;28;20036;-73
2022/06/02 11:50:39;;;;;;;1.90;1.67;;;;;;;19.95;43.15;101319.47;5095290;28;20036;-72
2022/06/02 11:53:32;;;;;;;7.68;2.20;;;;;;;19.95;42.31;101319.47;5096119;28;20051;-75
2022/06/02 11:56:08;;;;;;;3.80;2.25;;;;;;;19.82;42.33;101324.06;5080720;28;20071;-73
2022/06/02 11:58:58;;;;;;;7.32;2.42;;;;;;;19.74;42.13;101323.25;5094348;28;20379;-70
2022/06/02 12:01:37;;;;;;;2.25;1.65;;;;;;;19.84;41.69;101328.22;5094076;28;20036;-76
2022/06/02 12:04:27;;;;;;;11.02;2.20;;;;;;;20.21;41.26;101339.38;5094273;28;20066;-76
2022/06/02 12:07:45;;;;;;;4.65;2.13;;;;;;;20.39;41.03;101337.66;5094204;28;20169;-72
2022/06/02 12:10:49;;;;;;;6.07;1.73;;;;;;;20.28;39.86;101341.03;5054285;28;20051;-74
2022/06/02 12:13:52;;;;;;;3.15;1.85;;;;;;;20.10;40.47;101343.56;5095162;28;20048;-83
2022/06/02 12:16:39;;;;;;;3.97;2.30;;;;;;;20.10;40.04;101339.00;5076658;28;20494;-74
2022/06/02 12:19:23;;;;;;;2.60;2.30;;;;;;;20.33;40.32;101332.28;5094916;28;20040;-75
2022/06/02 12:22:20;;;;;;;2.70;1.77;;;;;;;20.22;40.49;101335.63;5095331;28;20061;-69
2022/06/02 12:25:04;;;;;;;5.47;2.90;;;;;;;19.86;41.21;101341.50;5096093;28;20089;-71
2022/06/02 12:27:38;;;;;;;16.30;3.33;;;;;;;19.78;41.04;101351.50;5093421;28;20494;-70
2022/06/02 12:30:37;;;;;;;6.88;2.28;;;;;;;20.06;40.91;101345.03;5092386;28;20036;-73
2022/06/02 12:33:10;;;;;;;5.97;2.60;;;;;;;20.08;40.11;101340.25;5093707;28;20487;-74
2022/06/02 12:35:43;;;;;;;4.43;1.85;;;;;;;20.02;40.14;101331.09;5093783;28;20036;-70
2022/06/02 12:38:21;;;;;;;4.72;1.67;;;;;;;20.03;39.95;101338.19;5093469;28;20063;-64
2022/06/02 12:41:03;;;;;;;3.75;1.98;;;;;;;20.06;40.08;101336.91;5094140;28;20394;-71
2022/06/02 12:43:45;;;;;;;2.28;1.85;;;;;;;20.08;40.44;101340.25;5093429;28;20130;-64
2022/06/02 12:46:42;;;;;;;3.55;2.10;;;;;;;20.26;40.64;101343.13;5093365;28;20043;-68
2022/06/02 12:49:38;;;;;;;4.75;2.58;;;;;;;20.43;38.51;101348.91;5093124;28;20131;-66
2022/06/02 12:52:04;;;;;;;3.50;2.15;;;;;;;20.65;38.08;101336.75;5093576;28;20120;-68
2022/06/02 12:55:07;;;;;;;3.28;1.75;;;;;;;20.68;38.34;101341.75;5093439;28;20097;-68
2022/06/02 12:58:07;;;;;;;3.65;1.67;;;;;;;20.35;39.38;101341.84;5010790;28;20430;-70
2022/06/02 13:01:02;;;;;;;16.80;4.35;;;;;;;20.22;39.33;101336.44;5091737;28;20036;-70
2022/06/02 13:03:46;;;;;;;3.20;2.22;;;;;;;20.10;39.85;101340.84;5093260;28;20157;-69
2022/06/02 13:07:03;;;;;;;4.53;1.95;;;;;;;20.18;38.80;101332.50;5092921;28;20028;-68
2022/06/02 13:09:40;;;;;;;3.88;2.85;;;;;;;20.36;38.71;101337.25;5051599;28;20087;-70
2022/06/02 13:12:38;;;;;;;4.93;2.50;;;;;;;20.38;39.09;101332.47;5094840;28;20048;-68
2022/06/02 13:15:46;;;;;;;5.72;2.13;;;;;;;20.24;38.44;101330.81;5021089;28;20049;-69
2022/06/02 13:18:23;;;;;;;4.07;2.15;;;;;;;20.17;38.57;101335.44;5092831;28;20509;-69
2022/06/02 13:21:04;;;;;;;4.60;2.35;;;;;;;20.23;38.56;101338.09;5092723;28;20040;-67
2022/06/02 13:24:00;;;;;;;6.00;2.22;;;;;;;20.25;38.41;101330.66;5093141;28;20040;-63
2022/06/02 13:26:43;;;;;;;4.50;1.95;;;;;;;20.16;38.67;101336.47;5093415;28;20394;-66
2022/06/02 13:29:12;;;;;;;4.53;2.38;;;;;;;20.02;39.10;101343.78;5092738;28;20032;-67
2022/06/02 13:32:07;;;;;;;3.65;1.80;;;;;;;19.78;38.01;101329.06;5093132;28;20125;-73
2022/06/02 13:34:54;;;;;;;5.10;1.75;;;;;;;19.55;38.86;101329.47;5092695;28;20081;-73
2022/06/02 13:37:53;;;;;;;4.30;1.83;;;;;;;19.44;38.67;101333.59;5092442;28;20104;-65
2022/06/02 13:40:32;;;;;;;3.25;2.17;;;;;;;19.35;38.98;101334.81;5092871;28;20039;-67
2022/06/02 13:43:13;;;;;;;3.10;1.73;;;;;;;19.34;38.93;101341.25;5092601;28;20176;-69
2022/06/02 13:46:11;;;;;;;3.35;1.98;;;;;;;19.57;38.77;101338.19;5092298;28;20498;-66
2022/06/02 13:49:14;;;;;;;6.50;2.92;;;;;;;19.70;38.87;101332.81;5086551;28;20051;-66
2022/06/02 13:52:06;;;;;;;6.88;2.50;;;;;;;19.58;38.88;101339.03;5047109;28;20035;-65
2022/06/02 13:58:00;;;;;;;4.30;2.28;;;;;;;19.54;37.88;101338.63;5091116;28;20176;-67
2022/06/02 14:00:34;;;;;;;6.95;2.60;;;;;;;19.56;37.00;101341.94;5091997;28;20506;-67
2022/06/02 14:03:27;;;;;;;2.75;1.60;;;;;;;19.67;36.81;101329.69;5092288;28;20433;-66
2022/06/02 14:06:07;;;;;;;6.15;1.65;;;;;;;19.88;37.37;101334.84;5092316;28;20055;-65
2022/06/02 14:08:58;;;;;;;4.65;2.47;;;;;;;20.04;36.84;101339.00;5091613;28;20044;-67
2022/06/02 14:12:02;;;;;;;4.43;2.03;;;;;;;20.28;37.04;101332.91;5092037;28;20048;-67
2022/06/02 14:15:03;;;;;;;1.70;1.60;;;;;;;20.62;37.13;101334.50;5091272;28;20065;-72
2022/06/02 14:17:35;;;;;;;7.88;1.83;;;;;;;20.96;37.13;101330.56;5070881;28;20042;-74
2022/06/02 14:20:26;;;;;;;3.80;1.75;;;;;;;21.05;35.95;101331.13;5092804;28;20044;-72
2022/06/02 14:23:09;;;;;;;2.67;1.38;;;;;;;20.79;35.68;101331.28;5092708;28;20490;-73
2022/06/02 14:25:57;;;;;;;2.83;1.20;;;;;;;20.75;35.40;101335.47;5096607;28;20426;-71
2022/06/02 14:28:56;;;;;;;2.30;1.30;;;;;;;20.76;35.91;101334.41;5095589;28;20042;-74
2022/06/02 14:31:27;;;;;;;2.47;1.17;;;;;;;20.62;35.35;101341.78;5095596;28;20070;-74
2022/06/02 14:34:29;;;;;;;2.85;1.33;;;;;;;20.55;35.54;101311.22;5097193;28;20638;-74
2022/06/02 14:37:10;;;;;;;4.50;1.38;;;;;;;20.63;35.40;101325.31;5097062;28;20181;-74
2022/06/02 14:39:50;;;;;;;7.57;2.00;;;;;;;20.58;36.70;101344.09;5098245;28;20043;-74
2022/06/02 14:43:05;;;;;;;5.80;1.83;;;;;;;20.46;35.77;101342.25;5103981;28;20032;-75
2022/06/02 14:45:39;;;;;;;2.08;1.70;;;;;;;20.29;36.56;101325.63;5095420;28;20055;-72
2022/06/02 14:48:19;;;;;;;1.50;1.40;;;;;;;20.22;36.53;101332.91;5095816;28;20059;-76
2022/06/02 14:50:56;;;;;;;3.50;1.85;;;;;;;20.19;37.24;101342.28;5095534;28;20533;-72
2022/06/02 14:53:40;;;;;;;3.75;2.10;;;;;;;20.20;37.38;101354.75;5095994;28;20490;-78
2022/06/02 14:56:31;;;;;;;5.75;2.10;;;;;;;20.33;36.64;101348.50;5095981;28;20074;-72
2022/06/02 14:59:25;;;;;;;3.05;1.70;;;;;;;20.50;36.67;101349.72;5098768;28;20516;-73
2022/06/02 15:02:33;;;;;;;4.63;2.42;;;;;;;20.46;37.13;101340.38;5096524;28;20042;-73
2022/06/02 15:05:20;;;;;;;1.63;1.35;;;;;;;20.26;37.08;101350.41;5095406;28;20036;-75
2022/06/02 15:07:56;;;;;;;6.15;1.98;;;;;;;20.09;37.71;101353.56;5095406;28;20080;-73
2022/06/02 15:10:32;;;;;;;2.28;1.90;;;;;;;20.04;37.96;101347.94;5095867;28;20060;-79
2022/06/02 15:13:12;;;;;;;3.45;1.88;;;;;;;20.04;37.15;101345.25;5102120;28;20056;-75
2022/06/02 15:15:49;;;;;;;4.43;1.63;;;;;;;20.10;37.74;101335.44;5099513;28;20032;-76
2022/06/02 15:18:34;;;;;;;4.10;2.08;;;;;;;20.18;38.05;101335.22;5095213;28;20038;-72
2022/06/02 15:21:27;;;;;;;5.53;2.03;;;;;;;20.28;38.08;101330.22;5095117;28;20036;-73
2022/06/02 15:24:26;;;;;;;5.28;1.98;;;;;;;20.35;38.14;101341.00;5094844;28;20064;-75
2022/06/02 15:26:57;;;;;;;6.72;1.67;;;;;;;20.06;37.69;101332.34;5100601;28;20066;-72
2022/06/02 15:29:43;;;;;;;6.13;1.90;;;;;;;19.85;38.01;101340.69;5096478;28;20031;-72
2022/06/02 15:32:23;;;;;;;2.30;1.90;;;;;;;19.60;38.75;101345.06;5094070;28;20032;-75
2022/06/02 15:35:13;;;;;;;3.58;1.77;;;;;;;19.48;39.04;101356.47;5093909;28;20122;-71
2022/06/02 15:38:16;;;;;;;4.38;1.80;;;;;;;19.42;39.66;101357.28;5094451;28;20429;-70
2022/06/02 15:41:06;;;;;;;4.97;2.15;;;;;;;19.36;39.22;101351.84;5094875;28;20086;-67
2022/06/02 15:44:03;;;;;;;5.80;1.60;;;;;;;19.47;38.97;101338.59;5096304;28;20036;-74
2022/06/02 15:46:51;;;;;;;4.22;2.65;;;;;;;19.57;38.58;101342.78;5093366;28;20082;-70
2022/06/02 15:49:22;;;;;;;5.15;2.33;;;;;;;19.64;39.06;101335.50;5094553;28;20035;-71
2022/06/02 15:51:48;;;;;;;4.53;2.03;;;;;;;19.76;38.00;101341.94;5094317;28;20039;-73
2022/06/02 15:54:39;;;;;;;2.72;1.45;;;;;;;19.92;38.36;101335.25;5094247;28;20135;-67
2022/06/02 15:57:25;;;;;;;4.65;2.03;;;;;;;19.99;38.91;101336.94;5095074;28;20044;-68
2022/06/02 16:00:15;;;;;;;4.45;2.20;;;;;;;20.08;38.19;101334.84;5095258;28;20044;-69
2022/06/02 16:03:12;;;;;;;4.53;2.35;;;;;;;20.10;38.21;101330.03;5094693;28;20585;-71
2022/06/02 16:06:15;;;;;;;6.40;2.38;;;;;;;20.19;38.19;101336.03;5096405;28;20581;-74
2022/06/02 16:12:03;;;;;;;6.05;2.00;;;;;;;20.55;36.64;101341.81;5094012;28;20401;-68
2022/06/02 16:15:04;;;;;;;5.00;1.90;;;;;;;20.89;36.16;101350.59;5095025;28;20054;-69
2022/06/02 16:17:38;;;;;;;5.10;1.77;;;;;;;21.22;35.94;101348.53;5052206;28;20088;-67
2022/06/02 16:20:19;;;;;;;3.85;1.58;;;;;;;21.53;35.52;101355.00;5093913;28;20075;-71
2022/06/02 16:22:54;;;;;;;4.03;1.75;;;;;;;21.65;35.41;101347.81;5092828;28;20027;-69
2022/06/02 16:26:12;;;;;;;3.22;1.52;;;;;;;21.75;34.30;101347.34;5093682;28;20394;-67
2022/06/02 16:29:16;;;;;;;1.92;1.50;;;;;;;21.80;35.16;101350.19;5044819;28;20537;-68
2022/06/02 16:32:19;;;;;;;8.10;1.92;;;;;;;21.41;35.17;101345.94;5061547;28;20568;-67
2022/06/02 16:34:44;;;;;;;2.05;1.40;;;;;;;20.98;35.81;101341.19;5073216;28;20514;-68
2022/06/02 16:37:19;;;;;;;3.78;2.42;;;;;;;20.70;36.29;101326.13;5055320;28;20036;-69
2022/06/02 16:40:03;;;;;;;6.13;2.13;;;;;;;20.56;37.06;101343.47;5073548;28;20036;-70
2022/06/02 16:42:40;;;;;;;8.88;2.05;;;;;;;20.35;36.59;101333.72;5072715;28;20069;-68
2022/06/02 16:45:27;;;;;;;2.93;1.63;;;;;;;20.45;36.99;101341.41;5077628;28;20053;-74
2022/06/02 16:48:11;;;;;;;5.40;2.30;;;;;;;20.67;36.25;101337.38;5073126;28;20032;-72
2022/06/02 16:50:37;;;;;;;3.35;1.80;;;;;;;20.93;36.15;101338.28;5072869;28;20449;-71
2022/06/02 16:56:40;;;;;;;4.18;1.80;;;;;;;20.82;36.42;101330.88;5072735;28;20604;-72
2022/06/02 16:59:12;;;;;;;4.18;1.90;;;;;;;20.50;36.48;101322.66;5094460;28;20079;-75
2022/06/02 17:01:42;;;;;;;7.18;1.63;;;;;;;20.23;37.33;101327.28;5092801;28;20533;-73
2022/06/02 17:04:14;;;;;;;4.53;1.52;;;;;;;19.95;37.63;101326.72;5092110;28;20115;-73
2022/06/02 17:06:58;;;;;;;2.92;1.85;;;;;;;19.75;38.04;101330.31;5089094;28;20035;-72
2022/06/02 17:09:29;;;;;;;4.78;1.73;;;;;;;19.59;38.33;101325.31;5087343;28;20056;-77
2022/06/02 17:12:14;;;;;;;4.47;2.05;;;;;;;19.47;38.43;101316.97;5092914;28;20055;-74
2022/06/02 17:14:39;;;;;;;4.97;1.77;;;;;;;19.42;38.69;101314.06;5093688;28;20020;-70
2022/06/02 17:17:05;;;;;;;2.95;1.60;;;;;;;19.35;39.21;101307.81;5092308;28;20061;-71
2022/06/02 17:19:56;;;;;;;6.82;1.50;;;;;;;19.29;39.06;101319.44;5091272;28;20077;-76
2022/06/02 17:22:43;;;;;;;7.88;2.22;;;;;;;19.26;39.30;101305.53;5091642;28;20036;-72
2022/06/02 17:25:37;;;;;;;6.75;2.60;;;;;;;19.23;39.54;101298.69;5094595;28;20032;-73
2022/06/02 17:28:16;;;;;;;2.47;2.25;;;;;;;19.05;40.08;101274.13;5094776;28;20034;-70
2022/06/02 17:31:34;;;;;;;5.22;2.38;;;;;;;19.15;40.63;101306.97;5093409;28;20436;-72
2022/06/02 17:34:25;;;;;;;8.70;2.13;;;;;;;19.10;40.41;101299.50;5092425;28;20055;-71
2022/06/02 17:36:58;;;;;;;7.50;2.08;;;;;;;19.04;41.09;101299.47;5092436;28;20483;-72
2022/06/02 17:39:29;;;;;;;7.93;2.30;;;;;;;19.01;41.32;101299.88;5092585;28;20032;-70
2022/06/02 17:42:19;;;;;;;5.35;2.42;;;;;;;19.00;41.13;101292.81;5092245;28;20035;-72
2022/06/02 17:45:03;;;;;;;3.80;2.70;;;;;;;18.96;41.38;101288.88;5093180;28;20063;-69
2022/06/02 17:47:50;;;;;;;6.13;3.00;;;;;;;18.91;41.20;101288.66;5092213;28;20036;-70
2022/06/02 17:50:40;;;;;;;4.25;2.35;;;;;;;18.88;41.53;101288.03;5092394;28;20035;-74
2022/06/02 17:53:27;;;;;;;6.40;2.65;;;;;;;18.86;41.50;101287.41;5090682;28;20043;-72
2022/06/02 17:56:06;;;;;;;6.00;2.70;;;;;;;18.83;41.67;101278.91;5092440;28;20032;-71
2022/06/02 17:58:40;;;;;;;5.50;2.33;;;;;;;18.78;42.35;101281.34;5092252;28;20380;-71
2022/06/02 18:01:18;;;;;;;4.00;2.58;;;;;;;18.71;42.12;101273.25;5091277;28;20036;-71
2022/06/02 18:04:12;;;;;;;2.30;1.98;;;;;;;18.73;42.48;101276.56;5092042;28;20047;-69
2022/06/02 18:07:14;;;;;;;6.10;2.10;;;;;;;18.72;42.38;101285.69;5092002;28;20043;-72
2022/06/02 18:09:50;;;;;;;2.22;2.00;;;;;;;18.68;42.03;101280.91;5090123;28;20059;-71
2022/06/02 18:12:36;;;;;;;4.50;1.75;;;;;;;18.63;42.21;101280.69;5091670;28;20040;-72
2022/06/02 18:15:22;;;;;;;3.28;2.05;;;;;;;18.64;42.69;101283.19;5092411;28;20032;-71
2022/06/02 18:18:06;;;;;;;9.70;3.08;;;;;;;18.56;43.00;101280.66;5090980;28;20039;-73
2022/06/02 18:20:47;;;;;;;2.13;1.90;;;;;;;18.56;42.71;101275.25;5091861;28;20035;-71
2022/06/02 18:23:33;;;;;;;3.53;1.90;;;;;;;18.58;42.72;101278.59;5091936;28;20059;-71
2022/06/02 18:26:09;;;;;;;5.05;2.17;;;;;;;18.53;43.30;101272.97;5091907;28;20039;-69
2022/06/02 18:29:01;;;;;;;2.17;1.95;;;;;;;18.53;43.39;101283.75;5092043;28;20085;-69
2022/06/02 18:31:47;;;;;;;3.85;2.05;;;;;;;18.48;43.41;101286.22;5091919;28;20132;-71
2022/06/02 18:34:40;;;;;;;2.55;1.80;;;;;;;18.44;43.64;101293.88;5087377;28;20376;-70
2022/06/02 18:37:17;;;;;;;5.68;2.10;;;;;;;18.41;43.86;101294.28;5086493;28;20459;-72
2022/06/02 18:40:10;;;;;;;6.22;2.20;;;;;;;18.39;43.59;101288.25;5091614;28;20039;-72
2022/06/02 18:42:56;;;;;;;3.97;2.55;;;;;;;18.37;43.88;101290.31;5091568;28;20042;-73
2022/06/02 18:45:42;;;;;;;2.10;1.90;;;;;;;18.34;44.23;101295.28;5092979;28;20028;-69
2022/06/02 18:48:45;;;;;;;5.28;2.42;;;;;;;18.31;44.24;101279.50;5074793;28;20123;-69
2022/06/02 18:51:29;;;;;;;5.55;1.95;;;;;;;18.26;43.91;101290.91;5071358;28;20126;-70
2022/06/02 18:53:58;;;;;;;2.72;1.92;;;;;;;18.25;44.04;101292.78;5071350;28;20036;-71
2022/06/02 18:56:32;;;;;;;;;;;;;;;18.26;44.54;101291.75;5071736;28;20119;-69
2022/06/02 18:59:00;;;;;;;3.33;2.22;;;;;;;18.21;44.44;101282.56;5070991;28;19969;-69
2022/06/02 19:01:46;;;;;;;3.40;1.98;;;;;;;18.17;44.46;101287.53;5071685;28;20040;-71
2022/06/02 19:04:45;;;;;;;3.75;1.98;;;;;;;18.16;44.70;101283.16;5078470;28;20494;-68
2022/06/02 19:13:58;;;;;;;5.25;2.55;;;;;;;18.00;45.26;101272.72;5091119;28;20047;-71
2022/06/02 19:16:48;;;;;;;7.57;4.25;;;;;;;18.03;45.95;101280.41;5091968;28;20508;-70
2022/06/02 19:19:51;;;;;;;2.65;2.45;;;;;;;18.00;45.27;101275.41;5094979;28;20040;-72